Time;durP1;ratioP1;P1;durP2;ratioP2;P2;SDS_P1;SDS_P2;PMS_P1;PMS_P2;Temp;Humidity;BMP_temperature;BMP_pressure;BME280_temperature;BME280_humidity;BME280_pressure;Samples;Min_cycle;Max_cycle;Signal;HPM_P1;HPM_P2
2023/08/29 00:01:30;;;;;;;5.73;3.70;;;;;;;;;;5016299;28;20014;-64
2023/08/29 00:03:57;;;;;;;6.00;3.40;;;;;;;;;;5016238;28;20359;-64
2023/08/29 00:06:23;;;;;;;5.22;3.63;;;;;;;;;;5016603;28;20264;-74
2023/08/29 00:08:48;;;;;;;6.18;3.92;;;;;;;;;;5035428;28;20021;-74
2023/08/29 00:11:13;;;;;;;5.57;3.77;;;;;;;;;;5035398;28;20060;-74
2023/08/29 00:13:38;;;;;;;8.07;4.30;;;;;;;;;;5034009;28;20108;-74
2023/08/29 00:16:03;;;;;;;10.73;3.53;;;;;;;;;;5017047;28;20394;-74
2023/08/29 00:18:29;;;;;;;9.57;3.73;;;;;;;;;;5015922;28;20248;-74
2023/08/29 00:20:54;;;;;;;8.93;3.30;;;;;;;;;;5015956;28;20026;-74
2023/08/29 00:23:19;;;;;;;4.27;3.07;;;;;;;;;;5015906;28;20767;-74
2023/08/29 00:25:46;;;;;;;6.15;3.80;;;;;;;;;;5016961;28;20682;-74
2023/08/29 00:28:11;;;;;;;7.75;3.72;;;;;;;;;;5015759;28;20024;-73
2023/08/29 00:30:37;;;;;;;8.68;3.63;;;;;;;;;;5007616;28;20030;-74
2023/08/29 00:33:03;;;;;;;6.68;4.10;;;;;;;;;;5015732;28;20022;-74
2023/08/29 00:35:29;;;;;;;8.43;4.20;;;;;;;;;;5016856;28;20029;-73
2023/08/29 00:37:54;;;;;;;6.63;4.10;;;;;;;;;;5015527;28;20038;-74
2023/08/29 00:40:19;;;;;;;10.63;3.90;;;;;;;;;;5015564;28;20025;-74
2023/08/29 00:42:44;;;;;;;6.75;4.03;;;;;;;;;;5015580;28;20088;-74
2023/08/29 00:45:10;;;;;;;6.43;4.40;;;;;;;;;;5018975;28;20021;-74
2023/08/29 00:47:36;;;;;;;12.27;5.05;;;;;;;;;;5021011;28;20050;-74
2023/08/29 00:50:01;;;;;;;7.43;4.13;;;;;;;;;;5015451;28;20018;-74
2023/08/29 00:52:26;;;;;;;12.05;4.53;;;;;;;;;;5015283;28;20481;-74
2023/08/29 00:54:51;;;;;;;7.20;3.97;;;;;;;;;;5015402;28;20049;-74
2023/08/29 00:57:17;;;;;;;8.07;4.67;;;;;;;;;;5015442;28;20290;-74
2023/08/29 00:59:42;;;;;;;12.93;4.30;;;;;;;;;;5015208;28;20264;-74
2023/08/29 01:02:07;;;;;;;12.10;5.00;;;;;;;;;;5015200;28;20749;-74
2023/08/29 01:04:32;;;;;;;7.30;4.13;;;;;;;;;;5015114;28;20029;-74
2023/08/29 01:06:58;;;;;;;5.70;3.70;;;;;;;;;;5016043;28;20259;-74
2023/08/29 01:09:23;;;;;;;8.68;4.43;;;;;;;;;;5013801;28;20022;-74
2023/08/29 01:11:58;;;;;;;7.03;4.15;;;;;;;;;;5020763;28;20052;-74
2023/08/29 01:14:33;;;;;;;5.93;3.72;;;;;;;;;;5033588;28;20452;-74
2023/08/29 01:17:07;;;;;;;6.22;4.18;;;;;;;;;;5025852;28;20021;-74
2023/08/29 01:19:34;;;;;;;8.63;3.97;;;;;;;;;;5034134;28;20548;-73
2023/08/29 01:22:00;;;;;;;6.95;4.45;;;;;;;;;;5034144;28;20027;-73
2023/08/29 01:24:38;;;;;;;10.43;4.10;;;;;;;;;;5033600;28;20013;-73
2023/08/29 01:27:04;;;;;;;10.57;4.40;;;;;;;;;;5033982;28;20420;-74
2023/08/29 01:29:31;;;;;;;9.93;3.92;;;;;;;;;;5033901;28;20036;-73
2023/08/29 01:31:58;;;;;;;13.90;4.40;;;;;;;;;;5033498;28;20021;-72
2023/08/29 01:34:23;;;;;;;6.00;3.95;;;;;;;;;;5032704;28;20025;-74
2023/08/29 01:36:48;;;;;;;9.40;4.50;;;;;;;;;;5032277;28;20028;-74
2023/08/29 01:39:14;;;;;;;8.70;4.38;;;;;;;;;;5024636;28;20255;-74
2023/08/29 01:41:39;;;;;;;8.60;4.03;;;;;;;;;;5014438;28;20022;-73
2023/08/29 01:44:05;;;;;;;5.87;4.20;;;;;;;;;;5015574;28;20075;-73
2023/08/29 01:46:30;;;;;;;7.22;3.60;;;;;;;;;;5024219;28;20387;-73
2023/08/29 01:49:00;;;;;;;13.48;3.97;;;;;;;;;;5021929;28;20063;-74
2023/08/29 01:51:25;;;;;;;7.82;4.07;;;;;;;;;;5033547;28;20044;-74
2023/08/29 01:53:51;;;;;;;5.70;3.60;;;;;;;;;;5028522;28;20026;-74
2023/08/29 01:56:19;;;;;;;10.35;3.67;;;;;;;;;;5014064;28;20036;-72
2023/08/29 01:58:45;;;;;;;11.48;3.60;;;;;;;;;;5006146;28;20014;-73
2023/08/29 02:01:10;;;;;;;6.45;4.18;;;;;;;;;;5014101;28;20546;-74
2023/08/29 02:03:36;;;;;;;5.63;3.88;;;;;;;;;;5015095;28;20029;-73
2023/08/29 02:06:01;;;;;;;10.02;3.90;;;;;;;;;;5014035;28;20530;-73
2023/08/29 02:08:26;;;;;;;7.47;3.80;;;;;;;;;;5013998;28;20018;-74
2023/08/29 02:10:52;;;;;;;5.97;4.37;;;;;;;;;;5013942;28;20067;-73
2023/08/29 02:13:18;;;;;;;6.10;3.58;;;;;;;;;;5009457;28;20466;-74
2023/08/29 02:15:43;;;;;;;13.90;3.77;;;;;;;;;;5033070;28;20024;-74
2023/08/29 02:18:08;;;;;;;5.63;3.63;;;;;;;;;;5015185;28;20033;-74
2023/08/29 02:20:34;;;;;;;9.15;4.10;;;;;;;;;;5025582;28;20021;-74
2023/08/29 02:23:00;;;;;;;5.85;3.70;;;;;;;;;;5026555;28;20079;-74
2023/08/29 02:25:25;;;;;;;5.20;3.57;;;;;;;;;;5013756;28;20355;-71
2023/08/29 02:27:50;;;;;;;7.13;4.13;;;;;;;;;;5013705;28;20259;-64
2023/08/29 02:30:15;;;;;;;5.37;3.73;;;;;;;;;;5021386;28;20021;-64
2023/08/29 02:32:41;;;;;;;13.48;4.28;;;;;;;;;;5030286;28;20270;-64
2023/08/29 02:35:06;;;;;;;11.93;3.83;;;;;;;;;;5013661;28;20036;-64
2023/08/29 02:37:33;;;;;;;5.72;3.80;;;;;;;;;;5013491;28;20289;-64
2023/08/29 02:39:58;;;;;;;10.75;4.40;;;;;;;;;;5013454;28;20097;-64
2023/08/29 02:42:23;;;;;;;9.93;3.92;;;;;;;;;;5017183;28;20100;-64
2023/08/29 02:44:48;;;;;;;7.77;4.40;;;;;;;;;;5032610;28;20021;-63
2023/08/29 02:47:13;;;;;;;8.57;4.37;;;;;;;;;;5023580;28;20283;-64
2023/08/29 02:49:39;;;;;;;6.77;4.30;;;;;;;;;;5013405;28;20049;-64
2023/08/29 02:52:05;;;;;;;14.43;4.30;;;;;;;;;;5014535;28;20076;-63
2023/08/29 02:54:30;;;;;;;8.32;4.30;;;;;;;;;;5013325;28;20029;-64
2023/08/29 02:56:55;;;;;;;8.17;4.97;;;;;;;;;;5013369;28;20105;-64
2023/08/29 02:59:20;;;;;;;6.43;3.80;;;;;;;;;;5013324;28;20013;-63
2023/08/29 03:01:45;;;;;;;5.97;3.90;;;;;;;;;;5014425;28;20465;-64
2023/08/29 03:04:11;;;;;;;7.03;3.63;;;;;;;;;;5013343;28;20018;-64
2023/08/29 03:06:36;;;;;;;7.57;4.00;;;;;;;;;;5013342;28;20041;-64
2023/08/29 03:09:01;;;;;;;11.30;4.23;;;;;;;;;;5013357;28;20032;-64
2023/08/29 03:11:26;;;;;;;9.98;4.43;;;;;;;;;;5016031;28;20262;-64
2023/08/29 03:13:52;;;;;;;6.13;4.13;;;;;;;;;;5032419;28;20029;-64
2023/08/29 03:16:17;;;;;;;6.90;4.63;;;;;;;;;;5032029;28;20105;-64
2023/08/29 03:18:42;;;;;;;8.77;4.88;;;;;;;;;;5013303;28;20347;-64
2023/08/29 03:21:07;;;;;;;10.07;4.00;;;;;;;;;;5014266;28;20025;-64
2023/08/29 03:23:35;;;;;;;7.07;4.43;;;;;;;;;;5013081;28;20255;-64
2023/08/29 03:26:04;;;;;;;15.38;4.63;;;;;;;;;;5013320;28;20017;-64
2023/08/29 03:28:29;;;;;;;8.82;4.00;;;;;;;;;;5013556;28;20026;-63
2023/08/29 03:30:55;;;;;;;6.35;4.32;;;;;;;;;;5007817;28;20121;-64
2023/08/29 03:33:20;;;;;;;6.67;4.67;;;;;;;;;;5021078;28;20068;-64
2023/08/29 03:35:45;;;;;;;11.57;4.23;;;;;;;;;;5036157;28;20441;-64
2023/08/29 03:38:10;;;;;;;8.87;4.73;;;;;;;;;;5035858;28;20105;-64
2023/08/29 03:40:35;;;;;;;13.27;4.53;;;;;;;;;;5032767;28;20746;-64
2023/08/29 03:43:01;;;;;;;10.67;4.27;;;;;;;;;;5015441;28;20021;-64
2023/08/29 03:45:26;;;;;;;11.47;4.30;;;;;;;;;;5016419;28;20057;-64
2023/08/29 03:47:51;;;;;;;5.93;4.20;;;;;;;;;;5027928;28;20108;-64
2023/08/29 03:50:16;;;;;;;5.90;4.13;;;;;;;;;;5034422;28;20067;-63
2023/08/29 03:52:42;;;;;;;13.03;4.37;;;;;;;;;;5035416;28;20030;-64
2023/08/29 03:55:07;;;;;;;9.88;4.65;;;;;;;;;;5035720;28;20033;-64
2023/08/29 03:57:32;;;;;;;9.38;4.93;;;;;;;;;;5035619;28;20497;-64
2023/08/29 03:59:57;;;;;;;14.20;4.43;;;;;;;;;;5033880;28;20021;-64
2023/08/29 04:02:23;;;;;;;11.43;5.53;;;;;;;;;;5016562;28;20466;-64
2023/08/29 04:04:50;;;;;;;11.52;4.53;;;;;;;;;;5016254;28;20018;-64
2023/08/29 04:07:16;;;;;;;9.60;5.05;;;;;;;;;;5034302;28;20033;-64
2023/08/29 04:09:41;;;;;;;10.65;4.93;;;;;;;;;;5031366;28;20021;-64
2023/08/29 04:12:08;;;;;;;9.30;4.87;;;;;;;;;;5022595;28;20100;-64
2023/08/29 04:14:33;;;;;;;8.05;4.20;;;;;;;;;;5019489;28;20714;-64
2023/08/29 04:16:58;;;;;;;14.45;4.80;;;;;;;;;;5019584;28;20097;-64
2023/08/29 04:19:23;;;;;;;7.20;4.67;;;;;;;;;;5034835;28;20013;-64
2023/08/29 04:21:49;;;;;;;11.83;5.20;;;;;;;;;;5015991;28;20041;-64
2023/08/29 04:24:14;;;;;;;10.10;4.80;;;;;;;;;;5015929;28;20014;-64
2023/08/29 04:26:39;;;;;;;9.47;4.70;;;;;;;;;;5015870;28;20022;-64
2023/08/29 04:29:04;;;;;;;10.27;4.77;;;;;;;;;;5016481;28;20037;-64
2023/08/29 04:31:29;;;;;;;12.73;4.97;;;;;;;;;;5035067;28;20064;-64
2023/08/29 04:33:55;;;;;;;10.17;5.40;;;;;;;;;;5035004;28;20254;-64
2023/08/29 04:36:20;;;;;;;9.73;4.73;;;;;;;;;;5034518;28;20278;-64
2023/08/29 04:38:47;;;;;;;9.00;4.30;;;;;;;;;;5031911;28;20482;-64
2023/08/29 04:41:12;;;;;;;7.20;4.68;;;;;;;;;;5015263;28;20021;-64
2023/08/29 04:43:39;;;;;;;7.60;4.68;;;;;;;;;;5015330;28;20018;-64
2023/08/29 04:46:07;;;;;;;9.02;5.20;;;;;;;;;;5015336;28;20045;-64
2023/08/29 04:48:32;;;;;;;6.22;4.07;;;;;;;;;;5028908;28;20370;-64
2023/08/29 04:50:57;;;;;;;9.40;4.20;;;;;;;;;;5034408;28;20029;-64
2023/08/29 04:53:22;;;;;;;6.23;3.97;;;;;;;;;;5034652;28;20250;-64
2023/08/29 04:55:48;;;;;;;10.20;4.43;;;;;;;;;;5034599;28;20251;-64
2023/08/29 04:58:13;;;;;;;8.55;4.45;;;;;;;;;;5033113;28;20025;-64
2023/08/29 05:00:38;;;;;;;9.70;4.40;;;;;;;;;;5015162;28;20026;-63
2023/08/29 05:03:04;;;;;;;11.30;5.20;;;;;;;;;;5015239;28;20024;-64
2023/08/29 05:05:29;;;;;;;6.78;5.07;;;;;;;;;;5015147;28;20259;-64
2023/08/29 05:07:55;;;;;;;12.85;5.45;;;;;;;;;;5015281;28;20536;-64
2023/08/29 05:10:20;;;;;;;10.60;5.03;;;;;;;;;;5023024;28;20058;-64
2023/08/29 05:12:45;;;;;;;11.40;4.88;;;;;;;;;;5015050;28;20076;-64
2023/08/29 05:15:10;;;;;;;7.17;4.93;;;;;;;;;;5014887;28;20443;-65
2023/08/29 05:17:36;;;;;;;12.07;4.80;;;;;;;;;;5022898;28;20495;-64
2023/08/29 05:20:01;;;;;;;8.90;4.90;;;;;;;;;;5014897;28;20611;-64
2023/08/29 05:22:26;;;;;;;7.93;5.53;;;;;;;;;;5027634;28;20761;-64
2023/08/29 05:24:51;;;;;;;7.63;5.30;;;;;;;;;;5034348;28;20607;-64
2023/08/29 05:27:16;;;;;;;6.90;5.10;;;;;;;;;;5034627;28;20033;-63
2023/08/29 05:29:42;;;;;;;7.77;4.73;;;;;;;;;;5016117;28;20030;-64
2023/08/29 05:32:07;;;;;;;8.80;4.82;;;;;;;;;;5014923;28;20274;-64
2023/08/29 05:34:32;;;;;;;7.22;4.90;;;;;;;;;;5006107;28;20176;-64
2023/08/29 05:36:58;;;;;;;7.78;5.05;;;;;;;;;;5014351;28;20032;-64
2023/08/29 05:39:23;;;;;;;11.15;5.22;;;;;;;;;;5014189;28;20009;-64
2023/08/29 05:41:49;;;;;;;12.35;5.70;;;;;;;;;;5014301;28;20076;-63
2023/08/29 05:44:14;;;;;;;10.30;5.53;;;;;;;;;;5006922;28;20153;-64
2023/08/29 05:46:39;;;;;;;10.75;6.63;;;;;;;;;;5011355;28;20141;-64
2023/08/29 05:49:05;;;;;;;10.33;5.87;;;;;;;;;;5007323;28;20023;-64
2023/08/29 05:51:30;;;;;;;11.87;6.13;;;;;;;;;;4994003;28;20029;-64
2023/08/29 05:53:55;;;;;;;11.07;7.00;;;;;;;;;;4994522;28;20093;-64
2023/08/29 05:56:20;;;;;;;8.97;6.00;;;;;;;;;;4998089;28;20274;-74
2023/08/29 05:58:46;;;;;;;17.50;7.47;;;;;;;;;;5014079;28;20278;-74
2023/08/29 06:01:11;;;;;;;15.93;7.80;;;;;;;;;;5014027;28;20021;-73
2023/08/29 06:03:36;;;;;;;12.77;7.88;;;;;;;;;;5013496;28;20437;-74
2023/08/29 06:06:03;;;;;;;9.73;7.17;;;;;;;;;;5008814;28;20014;-74
2023/08/29 06:08:28;;;;;;;14.35;9.02;;;;;;;;;;5005079;28;20617;-74
2023/08/29 06:10:53;;;;;;;12.05;8.60;;;;;;;;;;4994281;28;20018;-74
2023/08/29 06:13:19;;;;;;;12.40;8.07;;;;;;;;;;4994252;28;20010;-74
2023/08/29 06:15:44;;;;;;;13.47;7.80;;;;;;;;;;4994114;28;20018;-74
2023/08/29 06:18:09;;;;;;;13.83;7.43;;;;;;;;;;5002176;28;20026;-73
2023/08/29 06:20:35;;;;;;;15.98;8.13;;;;;;;;;;5011229;28;20259;-73
2023/08/29 06:23:01;;;;;;;15.32;7.57;;;;;;;;;;5005421;28;20062;-74
2023/08/29 06:25:27;;;;;;;17.30;7.43;;;;;;;;;;5003275;28;20038;-74
2023/08/29 06:27:52;;;;;;;13.55;7.78;;;;;;;;;;5007570;28;20267;-74
2023/08/29 06:30:18;;;;;;;18.10;8.73;;;;;;;;;;5005956;28;20382;-74
2023/08/29 06:32:43;;;;;;;13.85;9.38;;;;;;;;;;5011909;28;20505;-73
2023/08/29 06:35:10;;;;;;;14.35;9.27;;;;;;;;;;5012845;28;20021;-74
2023/08/29 06:37:36;;;;;;;17.27;10.40;;;;;;;;;;5005165;28;20025;-74
2023/08/29 06:40:01;;;;;;;19.38;11.35;;;;;;;;;;5015746;28;20064;-74
2023/08/29 06:42:26;;;;;;;20.95;11.63;;;;;;;;;;5008770;28;20417;-73
2023/08/29 06:44:52;;;;;;;19.13;11.00;;;;;;;;;;5011284;28;20147;-74
2023/08/29 06:47:17;;;;;;;19.00;12.38;;;;;;;;;;4999372;28;20068;-74
2023/08/29 06:49:42;;;;;;;22.23;12.03;;;;;;;;;;5012659;28;20503;-74
2023/08/29 06:52:07;;;;;;;24.33;13.00;;;;;;;;;;5011999;28;20030;-74
2023/08/29 06:54:33;;;;;;;27.52;14.40;;;;;;;;;;5013398;28;20777;-74
2023/08/29 06:56:58;;;;;;;23.05;15.52;;;;;;;;;;5028350;28;20029;-72
2023/08/29 06:59:24;;;;;;;22.93;15.93;;;;;;;;;;5032218;28;20026;-72
2023/08/29 07:01:49;;;;;;;23.02;14.80;;;;;;;;;;5031269;28;20250;-72
2023/08/29 07:04:14;;;;;;;35.50;20.33;;;;;;;;;;5035998;28;20021;-72
2023/08/29 07:06:39;;;;;;;28.38;18.88;;;;;;;;;;5035170;28;20346;-72
2023/08/29 07:09:05;;;;;;;31.38;16.85;;;;;;;;;;5036647;28;20021;-72
2023/08/29 07:11:30;;;;;;;24.30;14.45;;;;;;;;;;5036713;28;20500;-72
2023/08/29 07:13:55;;;;;;;29.00;17.27;;;;;;;;;;5036179;28;20021;-72
2023/08/29 07:16:21;;;;;;;27.23;17.50;;;;;;;;;;5027976;28;20026;-72
2023/08/29 07:18:46;;;;;;;26.13;14.90;;;;;;;;;;5036424;28;20738;-72
2023/08/29 07:21:12;;;;;;;20.80;13.87;;;;;;;;;;5036095;28;20115;-72
2023/08/29 07:23:37;;;;;;;18.42;12.07;;;;;;;;;;5036309;28;20393;-71
2023/08/29 07:26:02;;;;;;;25.00;14.23;;;;;;;;;;5023313;28;20018;-72
2023/08/29 07:28:27;;;;;;;22.95;15.27;;;;;;;;;;5016959;28;20029;-72
2023/08/29 07:30:53;;;;;;;26.67;16.07;;;;;;;;;;5033828;28;20051;-71
2023/08/29 07:33:18;;;;;;;24.40;16.57;;;;;;;;;;5010629;28;20309;-71
2023/08/29 07:35:44;;;;;;;28.25;17.35;;;;;;;;;;5012831;28;20274;-71
2023/08/29 07:38:09;;;;;;;24.27;15.57;;;;;;;;;;5012704;28;20092;-71
2023/08/29 07:40:35;;;;;;;21.23;12.55;;;;;;;;;;5016489;28;20021;-72
2023/08/29 07:43:01;;;;;;;19.77;10.82;;;;;;;;;;5014606;28;20474;-72
2023/08/29 07:45:26;;;;;;;18.67;12.65;;;;;;;;;;5007957;28;20029;-72
2023/08/29 07:47:51;;;;;;;20.33;11.20;;;;;;;;;;5011956;28;20051;-72
2023/08/29 07:50:16;;;;;;;18.27;10.47;;;;;;;;;;5007930;28;20030;-72
2023/08/29 07:52:42;;;;;;;21.80;13.33;;;;;;;;;;4996980;28;20080;-72
2023/08/29 07:55:07;;;;;;;24.37;12.23;;;;;;;;;;4999221;28;20282;-72
2023/08/29 07:57:33;;;;;;;18.75;12.00;;;;;;;;;;5016300;28;20064;-72
2023/08/29 07:59:58;;;;;;;17.97;10.43;;;;;;;;;;5016384;28;20022;-72
2023/08/29 08:02:23;;;;;;;16.43;9.97;;;;;;;;;;5015659;28;20341;-72
2023/08/29 08:04:48;;;;;;;11.15;7.65;;;;;;;;;;5008405;28;20045;-72
2023/08/29 08:07:14;;;;;;;15.90;10.00;;;;;;;;;;5016239;28;20460;-72
2023/08/29 08:09:40;;;;;;;17.77;10.67;;;;;;;;;;5012165;28;20026;-72
2023/08/29 08:12:05;;;;;;;18.17;10.93;;;;;;;;;;5014783;28;20474;-71
2023/08/29 08:14:31;;;;;;;16.27;11.10;;;;;;;;;;5007395;28;20018;-72
2023/08/29 08:16:56;;;;;;;15.13;10.03;;;;;;;;;;5010569;28;20072;-63
2023/08/29 08:19:21;;;;;;;13.30;8.27;;;;;;;;;;5015871;28;20109;-63
2023/08/29 08:21:46;;;;;;;19.03;11.10;;;;;;;;;;5015969;28;20072;-63
2023/08/29 08:24:11;;;;;;;16.33;9.97;;;;;;;;;;5014456;28;20018;-63
2023/08/29 08:26:37;;;;;;;19.47;11.67;;;;;;;;;;5015827;28;20351;-63
2023/08/29 08:29:04;;;;;;;16.83;10.60;;;;;;;;;;5007196;28;20022;-63
2023/08/29 08:31:29;;;;;;;13.90;9.00;;;;;;;;;;5015164;28;20134;-63
2023/08/29 08:33:56;;;;;;;20.15;9.13;;;;;;;;;;5014109;28;20104;-63
2023/08/29 08:36:21;;;;;;;14.18;8.27;;;;;;;;;;5012455;28;20449;-63
2023/08/29 08:38:46;;;;;;;13.53;7.60;;;;;;;;;;5011243;28;20046;-63
2023/08/29 08:41:12;;;;;;;10.60;7.03;;;;;;;;;;5014272;28;20247;-62
2023/08/29 08:43:38;;;;;;;10.13;5.82;;;;;;;;;;5007687;28;20354;-62
2023/08/29 08:46:03;;;;;;;11.70;6.60;;;;;;;;;;5014978;28;20397;-63
2023/08/29 08:48:29;;;;;;;10.88;7.15;;;;;;;;;;5016848;28;20032;-63
2023/08/29 08:50:54;;;;;;;11.30;7.00;;;;;;;;;;4995816;28;20025;-63
2023/08/29 08:53:21;;;;;;;9.77;7.10;;;;;;;;;;5010047;28;20018;-63
2023/08/29 08:55:46;;;;;;;10.50;7.25;;;;;;;;;;5015308;28;20022;-63
2023/08/29 08:58:12;;;;;;;15.38;6.97;;;;;;;;;;5015357;28;20462;-63
2023/08/29 09:00:37;;;;;;;13.38;5.80;;;;;;;;;;5015266;28;20025;-63
2023/08/29 09:03:02;;;;;;;13.67;7.33;;;;;;;;;;5006641;28;20018;-63
2023/08/29 09:05:28;;;;;;;11.77;7.28;;;;;;;;;;5013855;28;20414;-63
2023/08/29 09:07:53;;;;;;;11.60;6.32;;;;;;;;;;5002513;28;20026;-63
2023/08/29 09:10:19;;;;;;;9.38;6.47;;;;;;;;;;5015202;28;20084;-63
2023/08/29 09:12:49;;;;;;;10.38;7.53;;;;;;;;;;5013657;28;20056;-63
2023/08/29 09:15:16;;;;;;;11.40;6.90;;;;;;;;;;5014923;28;20496;-62
2023/08/29 09:17:45;;;;;;;10.82;5.55;;;;;;;;;;5010287;28;20022;-63
2023/08/29 09:20:11;;;;;;;10.15;5.70;;;;;;;;;;5014830;28;20463;-63
2023/08/29 09:22:36;;;;;;;12.60;5.07;;;;;;;;;;5005979;28;20033;-63
2023/08/29 09:25:03;;;;;;;8.30;6.20;;;;;;;;;;4998612;28;20018;-63
2023/08/29 09:27:28;;;;;;;8.98;5.70;;;;;;;;;;5013827;28;20347;-73
2023/08/29 09:30:05;;;;;;;10.38;4.78;;;;;;;;;;5014762;28;20064;-73
2023/08/29 09:32:30;;;;;;;11.43;3.88;;;;;;;;;;5013368;28;20022;-73
2023/08/29 09:34:58;;;;;;;3.97;2.70;;;;;;;;;;5012889;28;20029;-73
2023/08/29 09:37:24;;;;;;;8.00;3.80;;;;;;;;;;5014436;28;20021;-73
2023/08/29 09:39:49;;;;;;;7.72;3.58;;;;;;;;;;5014470;28;20022;-73
2023/08/29 09:42:16;;;;;;;6.53;3.50;;;;;;;;;;4998392;28;20107;-72
2023/08/29 09:44:41;;;;;;;5.32;3.60;;;;;;;;;;4999797;28;20264;-72
2023/08/29 09:47:08;;;;;;;8.85;3.55;;;;;;;;;;4997201;28;20033;-69
2023/08/29 09:49:42;;;;;;;5.80;3.58;;;;;;;;;;5005952;28;20117;-73
2023/08/29 09:52:12;;;;;;;10.30;3.88;;;;;;;;;;4998948;28;20026;-72
2023/08/29 09:54:46;;;;;;;7.03;3.70;;;;;;;;;;4994694;28;20073;-72
2023/08/29 09:57:13;;;;;;;4.88;3.10;;;;;;;;;;4994505;28;20018;-73
2023/08/29 09:59:39;;;;;;;6.75;2.92;;;;;;;;;;4994472;28;20034;-73
2023/08/29 10:02:04;;;;;;;6.95;2.90;;;;;;;;;;4999362;28;20525;-73
2023/08/29 10:04:30;;;;;;;9.50;3.08;;;;;;;;;;5014033;28;20477;-73
2023/08/29 10:06:56;;;;;;;3.70;2.33;;;;;;;;;;5007722;28;20076;-73
2023/08/29 10:09:24;;;;;;;6.28;3.05;;;;;;;;;;5005436;28;20026;-73
2023/08/29 10:11:49;;;;;;;5.45;3.30;;;;;;;;;;5011484;28;20045;-72
2023/08/29 10:14:15;;;;;;;8.77;4.38;;;;;;;;;;5005444;28;20446;-73
2023/08/29 10:16:41;;;;;;;11.77;4.45;;;;;;;;;;5008632;28;20102;-73
2023/08/29 10:19:06;;;;;;;11.45;4.75;;;;;;;;;;5010586;28;20033;-74
2023/08/29 10:21:31;;;;;;;8.00;4.00;;;;;;;;;;5011085;28;20033;-73
2023/08/29 10:23:57;;;;;;;7.72;4.10;;;;;;;;;;5005767;28;20267;-73
2023/08/29 10:26:23;;;;;;;9.27;4.63;;;;;;;;;;5018181;28;20014;-72
2023/08/29 10:28:48;;;;;;;7.60;4.13;;;;;;;;;;4994036;28;20025;-73
2023/08/29 10:31:14;;;;;;;8.32;4.10;;;;;;;;;;5002385;28;20374;-74
2023/08/29 10:33:40;;;;;;;5.35;3.47;;;;;;;;;;5013639;28;20359;-74
2023/08/29 10:36:08;;;;;;;6.63;2.57;;;;;;;;;;5005918;28;20021;-63
2023/08/29 10:38:40;;;;;;;6.78;2.10;;;;;;;;;;5012575;28;20477;-63
2023/08/29 10:41:09;;;;;;;4.78;2.53;;;;;;;;;;5001404;28;20097;-63
2023/08/29 10:43:35;;;;;;;7.72;2.45;;;;;;;;;;5033427;28;20026;-63
2023/08/29 10:46:12;;;;;;;5.53;2.45;;;;;;;;;;5024119;28;20049;-63
2023/08/29 10:48:39;;;;;;;4.95;2.38;;;;;;;;;;5013352;28;20107;-63
2023/08/29 10:51:07;;;;;;;5.07;2.23;;;;;;;;;;4998223;28;20030;-63
2023/08/29 10:53:35;;;;;;;5.60;2.00;;;;;;;;;;5003086;28;20026;-63
2023/08/29 10:56:03;;;;;;;4.80;1.80;;;;;;;;;;5013347;28;20068;-63
2023/08/29 10:58:36;;;;;;;3.78;2.10;;;;;;;;;;5013153;28;20034;-64
2023/08/29 11:01:01;;;;;;;3.20;1.70;;;;;;;;;;5004987;28;20041;-63
2023/08/29 11:03:48;;;;;;;2.35;1.70;;;;;;;;;;5007315;28;20057;-63
2023/08/29 11:06:14;;;;;;;3.58;1.70;;;;;;;;;;4997397;28;20022;-63
2023/08/29 11:08:39;;;;;;;3.95;2.20;;;;;;;;;;5018243;28;20024;-63
2023/08/29 11:11:14;;;;;;;4.33;1.70;;;;;;;;;;5005371;28;20462;-63
2023/08/29 11:13:58;;;;;;;3.25;1.77;;;;;;;;;;5005940;28;20660;-63
2023/08/29 11:16:27;;;;;;;3.25;1.77;;;;;;;;;;4997879;28;20402;-62
2023/08/29 11:19:12;;;;;;;5.85;1.90;;;;;;;;;;5004983;28;20528;-63
2023/08/29 11:21:38;;;;;;;1.65;1.27;;;;;;;;;;4995081;28;20046;-63
2023/08/29 11:24:07;;;;;;;2.28;1.40;;;;;;;;;;4993666;28;20018;-63
2023/08/29 11:26:35;;;;;;;1.98;0.98;;;;;;;;;;4993856;28;20539;-63
2023/08/29 11:29:01;;;;;;;2.33;1.30;;;;;;;;;;4993494;28;20014;-63
2023/08/29 11:31:26;;;;;;;2.55;1.20;;;;;;;;;;4993041;28;20073;-63
2023/08/29 11:33:51;;;;;;;5.67;1.43;;;;;;;;;;4993423;28;20018;-63
2023/08/29 11:36:17;;;;;;;4.93;1.77;;;;;;;;;;4993353;28;20335;-63
2023/08/29 11:38:42;;;;;;;4.63;1.92;;;;;;;;;;4993401;28;20015;-63
2023/08/29 11:41:08;;;;;;;2.63;1.50;;;;;;;;;;4993535;28;20025;-63
2023/08/29 11:43:33;;;;;;;2.50;1.50;;;;;;;;;;4993419;28;20061;-63
2023/08/29 11:46:01;;;;;;;7.32;1.90;;;;;;;;;;4992789;28;20045;-63
2023/08/29 11:48:28;;;;;;;3.97;1.60;;;;;;;;;;5007310;28;20022;-63
2023/08/29 11:50:58;;;;;;;3.95;1.70;;;;;;;;;;5015494;28;20474;-63
2023/08/29 11:53:28;;;;;;;6.90;1.65;;;;;;;;;;5015912;28;20146;-72
2023/08/29 11:55:53;;;;;;;4.15;1.40;;;;;;;;;;5016547;28;20018;-72
2023/08/29 11:58:19;;;;;;;4.50;1.05;;;;;;;;;;5015092;28;20492;-73
2023/08/29 12:00:45;;;;;;;5.57;1.80;;;;;;;;;;5015934;28;20013;-63
2023/08/29 12:03:10;;;;;;;6.28;1.50;;;;;;;;;;5016403;28;20025;-64
2023/08/29 12:05:35;;;;;;;1.45;1.05;;;;;;;;;;5016285;28;20462;-63
2023/08/29 12:08:00;;;;;;;5.07;1.83;;;;;;;;;;5016316;28;20065;-72
2023/08/29 12:10:27;;;;;;;3.60;1.60;;;;;;;;;;5016243;28;20112;-71
2023/08/29 12:12:52;;;;;;;3.65;1.42;;;;;;;;;;5016185;28;20255;-71
2023/08/29 12:15:17;;;;;;;3.00;1.10;;;;;;;;;;5015667;28;20022;-71
2023/08/29 12:17:43;;;;;;;3.17;1.13;;;;;;;;;;5015882;28;20279;-71
2023/08/29 12:20:12;;;;;;;2.97;1.30;;;;;;;;;;5016052;28;20060;-71
2023/08/29 12:22:38;;;;;;;5.20;1.52;;;;;;;;;;5014795;28;20084;-71
2023/08/29 12:25:07;;;;;;;3.30;1.75;;;;;;;;;;5016112;28;20042;-71
2023/08/29 12:27:32;;;;;;;6.75;2.20;;;;;;;;;;4999800;28;20034;-63
2023/08/29 12:29:57;;;;;;;7.97;2.30;;;;;;;;;;5011619;28;20535;-63
2023/08/29 12:32:26;;;;;;;5.07;1.73;;;;;;;;;;5015635;28;20687;-63
2023/08/29 12:34:51;;;;;;;4.70;1.60;;;;;;;;;;5016059;28;20247;-63
2023/08/29 12:37:16;;;;;;;5.47;1.67;;;;;;;;;;5015763;28;20470;-62
2023/08/29 12:39:43;;;;;;;3.40;1.93;;;;;;;;;;5015766;28;20040;-63
2023/08/29 12:42:08;;;;;;;4.15;1.88;;;;;;;;;;5015611;28;20030;-63
2023/08/29 12:44:33;;;;;;;5.17;2.07;;;;;;;;;;5015210;28;20051;-62
2023/08/29 12:46:59;;;;;;;7.47;2.37;;;;;;;;;;5015130;28;20311;-63
2023/08/29 12:49:24;;;;;;;5.40;2.30;;;;;;;;;;5015524;28;20329;-63
2023/08/29 12:51:50;;;;;;;3.63;1.93;;;;;;;;;;5015523;28;20371;-63
2023/08/29 12:54:15;;;;;;;4.35;2.63;;;;;;;;;;5014578;28;20022;-63
2023/08/29 12:56:40;;;;;;;5.73;3.20;;;;;;;;;;5015505;28;20028;-68
2023/08/29 12:59:06;;;;;;;6.40;2.53;;;;;;;;;;5014909;28;20259;-68
2023/08/29 13:01:31;;;;;;;5.20;2.70;;;;;;;;;;5015051;28;20021;-68
2023/08/29 13:03:56;;;;;;;4.47;2.60;;;;;;;;;;5015219;28;20381;-68
2023/08/29 13:06:22;;;;;;;10.05;3.38;;;;;;;;;;5015242;28;20044;-68
2023/08/29 13:08:47;;;;;;;4.40;3.00;;;;;;;;;;5015199;28;20052;-68
2023/08/29 13:11:12;;;;;;;7.97;3.40;;;;;;;;;;5015141;28;20022;-68
2023/08/29 13:13:37;;;;;;;5.57;3.17;;;;;;;;;;5014562;28;20025;-68
2023/08/29 13:16:03;;;;;;;7.77;3.63;;;;;;;;;;5015100;28;20033;-68
2023/08/29 13:18:28;;;;;;;8.80;2.90;;;;;;;;;;5013920;28;20087;-67
2023/08/29 13:20:54;;;;;;;5.70;3.43;;;;;;;;;;5014939;28;20424;-68
2023/08/29 13:23:19;;;;;;;8.35;2.80;;;;;;;;;;5009042;28;20566;-68
2023/08/29 13:25:44;;;;;;;5.20;3.05;;;;;;;;;;5012705;28;20026;-68
2023/08/29 13:28:09;;;;;;;7.93;3.37;;;;;;;;;;5013006;28;20028;-67
2023/08/29 13:30:35;;;;;;;5.57;3.37;;;;;;;;;;5014475;28;20321;-68
2023/08/29 13:33:01;;;;;;;4.30;2.63;;;;;;;;;;5014543;28;20263;-68
2023/08/29 13:35:26;;;;;;;4.95;2.33;;;;;;;;;;5014582;28;20396;-68
2023/08/29 13:37:52;;;;;;;3.23;2.30;;;;;;;;;;5006681;28;20034;-68
2023/08/29 13:40:17;;;;;;;6.00;2.58;;;;;;;;;;5013763;28;20037;-68
2023/08/29 13:42:42;;;;;;;9.82;2.80;;;;;;;;;;5014486;28;20428;-68
2023/08/29 13:45:08;;;;;;;6.10;2.67;;;;;;;;;;5006063;28;20040;-67
2023/08/29 13:47:33;;;;;;;5.70;2.80;;;;;;;;;;5013993;28;20053;-68
2023/08/29 13:49:58;;;;;;;8.03;2.70;;;;;;;;;;5006550;28;20022;-68
2023/08/29 13:52:23;;;;;;;4.25;2.63;;;;;;;;;;5012117;28;20278;-68
2023/08/29 13:54:49;;;;;;;7.93;2.22;;;;;;;;;;5008559;28;20100;-68
2023/08/29 13:57:14;;;;;;;5.78;2.45;;;;;;;;;;5012640;28;20101;-67
2023/08/29 13:59:39;;;;;;;5.18;2.33;;;;;;;;;;5002864;28;20018;-68
2023/08/29 14:02:07;;;;;;;3.00;2.00;;;;;;;;;;5009269;28;20474;-68
2023/08/29 14:04:32;;;;;;;6.55;2.83;;;;;;;;;;5012667;28;20117;-68
2023/08/29 14:06:58;;;;;;;9.73;2.53;;;;;;;;;;5014061;28;20105;-63
2023/08/29 14:09:23;;;;;;;3.33;2.07;;;;;;;;;;5010174;28;20318;-63
2023/08/29 14:11:48;;;;;;;4.20;2.35;;;;;;;;;;5009819;28;20264;-63
2023/08/29 14:14:13;;;;;;;5.33;2.07;;;;;;;;;;5011612;28;20030;-63
2023/08/29 14:16:39;;;;;;;7.20;2.50;;;;;;;;;;5008642;28;20029;-63
2023/08/29 14:19:05;;;;;;;5.77;2.20;;;;;;;;;;5012311;28;20068;-63
2023/08/29 14:21:31;;;;;;;4.13;2.13;;;;;;;;;;5007180;28;20020;-63
2023/08/29 14:23:56;;;;;;;5.40;2.20;;;;;;;;;;5005938;28;20093;-63
2023/08/29 14:26:21;;;;;;;3.60;2.27;;;;;;;;;;5013694;28;20572;-63
2023/08/29 14:28:46;;;;;;;3.57;2.37;;;;;;;;;;5014250;28;20043;-63